sensor_id;sensor_type;location;lat;lon;timestamp;pressure;altitude;pressure_sealevel;temperature;humidity
56270;BME280;42176;43.240;27.880;2023-04-23T00:01:04;100223.94;;;7.95;95.00
56270;BME280;42176;43.240;27.880;2023-04-23T00:03:31;100218.63;;;8.01;94.84
56270;BME280;42176;43.240;27.880;2023-04-23T00:06:04;100195.84;;;7.91;95.07
56270;BME280;42176;43.240;27.880;2023-04-23T00:08:31;100195.91;;;7.85;95.86
56270;BME280;42176;43.240;27.880;2023-04-23T00:10:57;100215.13;;;8.01;96.42
56270;BME280;42176;43.240;27.880;2023-04-23T00:13:22;100214.22;;;8.00;96.06
56270;BME280;42176;43.240;27.880;2023-04-23T00:15:48;100216.00;;;8.00;95.45
56270;BME280;42176;43.240;27.880;2023-04-23T00:18:14;100211.59;;;8.00;94.39
56270;BME280;42176;43.240;27.880;2023-04-23T00:20:41;100213.41;;;7.95;94.40
56270;BME280;42176;43.240;27.880;2023-04-23T00:23:07;100194.19;;;7.81;94.09
56270;BME280;42176;43.240;27.880;2023-04-23T00:25:33;100206.50;;;7.82;94.82
56270;BME280;42176;43.240;27.880;2023-04-23T00:27:58;100213.50;;;7.86;95.44
56270;BME280;42176;43.240;27.880;2023-04-23T00:30:23;100213.50;;;7.86;96.27
56270;BME280;42176;43.240;27.880;2023-04-23T00:32:49;100209.94;;;7.90;96.39
56270;BME280;42176;43.240;27.880;2023-04-23T00:35:14;100204.69;;;7.87;95.39
56270;BME280;42176;43.240;27.880;2023-04-23T00:37:41;100216.16;;;7.84;95.80
56270;BME280;42176;43.240;27.880;2023-04-23T00:40:07;100211.75;;;7.85;95.42
56270;BME280;42176;43.240;27.880;2023-04-23T00:42:32;100199.47;;;7.79;94.80
56270;BME280;42176;43.240;27.880;2023-04-23T00:44:58;100211.75;;;7.85;94.79
56270;BME280;42176;43.240;27.880;2023-04-23T00:47:28;100217.03;;;7.85;94.06
56270;BME280;42176;43.240;27.880;2023-04-23T00:49:53;100217.94;;;7.82;93.50
56270;BME280;42176;43.240;27.880;2023-04-23T00:52:20;100215.28;;;7.81;93.64
56270;BME280;42176;43.240;27.880;2023-04-23T00:54:46;100217.06;;;7.78;94.51
56270;BME280;42176;43.240;27.880;2023-04-23T00:57:11;100214.44;;;7.78;95.13
56270;BME280;42176;43.240;27.880;2023-04-23T00:59:37;100215.28;;;7.81;96.25
56270;BME280;42176;43.240;27.880;2023-04-23T01:02:02;100185.53;;;7.63;96.41
56270;BME280;42176;43.240;27.880;2023-04-23T01:04:29;100217.16;;;7.72;96.91
56270;BME280;42176;43.240;27.880;2023-04-23T01:06:57;100211.88;;;7.69;97.60
56270;BME280;42176;43.240;27.880;2023-04-23T01:09:23;100216.28;;;7.67;98.53
56270;BME280;42176;43.240;27.880;2023-04-23T01:11:50;100207.50;;;7.65;99.03
56270;BME280;42176;43.240;27.880;2023-04-23T01:14:16;100195.34;;;7.53;99.20
56270;BME280;42176;43.240;27.880;2023-04-23T01:16:41;100206.69;;;7.61;99.32
56270;BME280;42176;43.240;27.880;2023-04-23T01:19:08;100207.59;;;7.57;99.75
56270;BME280;42176;43.240;27.880;2023-04-23T01:21:36;100206.78;;;7.49;98.32
56270;BME280;42176;43.240;27.880;2023-04-23T01:24:05;100203.31;;;7.42;99.41
56270;BME280;42176;43.240;27.880;2023-04-23T01:26:30;100204.19;;;7.40;100.00
56270;BME280;42176;43.240;27.880;2023-04-23T01:28:56;100188.44;;;7.32;99.42
56270;BME280;42176;43.240;27.880;2023-04-23T01:31:22;100208.63;;;7.39;99.48
56270;BME280;42176;43.240;27.880;2023-04-23T01:33:49;100209.50;;;7.41;100.00
56270;BME280;42176;43.240;27.880;2023-04-23T01:36:17;100213.00;;;7.43;100.00
56270;BME280;42176;43.240;27.880;2023-04-23T01:38:43;100208.59;;;7.45;100.00
56270;BME280;42176;43.240;27.880;2023-04-23T01:41:09;100199.78;;;7.46;100.00
56270;BME280;42176;43.240;27.880;2023-04-23T01:43:34;100211.19;;;7.50;100.00
56270;BME280;42176;43.240;27.880;2023-04-23T01:46:00;100210.28;;;7.50;100.00
56270;BME280;42176;43.240;27.880;2023-04-23T01:48:26;100215.56;;;7.50;100.00
56270;BME280;42176;43.240;27.880;2023-04-23T01:50:52;100199.84;;;7.37;100.00
56270;BME280;42176;43.240;27.880;2023-04-23T01:53:18;100219.97;;;7.47;100.00
56270;BME280;42176;43.240;27.880;2023-04-23T01:55:47;100217.31;;;7.47;100.00
56270;BME280;42176;43.240;27.880;2023-04-23T01:58:13;100219.06;;;7.52;100.00
56270;BME280;42176;43.240;27.880;2023-04-23T02:00:38;100217.28;;;7.54;100.00
56270;BME280;42176;43.240;27.880;2023-04-23T02:03:04;100213.75;;;7.58;100.00
56270;BME280;42176;43.240;27.880;2023-04-23T02:05:33;100217.19;;;7.66;100.00
56270;BME280;42176;43.240;27.880;2023-04-23T02:07:59;100212.78;;;7.65;100.00
56270;BME280;42176;43.240;27.880;2023-04-23T02:10:24;100218.88;;;7.72;100.00
56270;BME280;42176;43.240;27.880;2023-04-23T02:12:50;100216.25;;;7.73;100.00
56270;BME280;42176;43.240;27.880;2023-04-23T02:15:16;100217.13;;;7.75;100.00
56270;BME280;42176;43.240;27.880;2023-04-23T02:17:42;100211.88;;;7.69;100.00
56270;BME280;42176;43.240;27.880;2023-04-23T02:20:08;100213.63;;;7.70;100.00
56270;BME280;42176;43.240;27.880;2023-04-23T02:22:36;100220.66;;;7.71;100.00
56270;BME280;42176;43.240;27.880;2023-04-23T02:25:02;100208.44;;;7.61;100.00
56270;BME280;42176;43.240;27.880;2023-04-23T02:27:27;100225.00;;;7.77;100.00
56270;BME280;42176;43.240;27.880;2023-04-23T02:29:53;100220.66;;;7.74;100.00
56270;BME280;42176;43.240;27.880;2023-04-23T02:32:18;100228.59;;;7.71;100.00
56270;BME280;42176;43.240;27.880;2023-04-23T02:34:44;100223.34;;;7.67;100.00
56270;BME280;42176;43.240;27.880;2023-04-23T02:37:10;100220.78;;;7.59;100.00
56270;BME280;42176;43.240;27.880;2023-04-23T02:39:36;100217.25;;;7.58;100.00
56270;BME280;42176;43.240;27.880;2023-04-23T02:42:03;100208.53;;;7.49;100.00
56270;BME280;42176;43.240;27.880;2023-04-23T02:44:28;100231.38;;;7.53;100.00
56270;BME280;42176;43.240;27.880;2023-04-23T02:46:54;100221.72;;;7.49;100.00
56270;BME280;42176;43.240;27.880;2023-04-23T02:49:20;100220.91;;;7.43;100.00
56270;BME280;42176;43.240;27.880;2023-04-23T02:51:46;100236.75;;;7.40;100.00
56270;BME280;42176;43.240;27.880;2023-04-23T02:54:11;100227.09;;;7.38;100.00
56270;BME280;42176;43.240;27.880;2023-04-23T02:56:37;100227.13;;;7.35;100.00
56270;BME280;42176;43.240;27.880;2023-04-23T02:59:03;100223.63;;;7.32;100.00
56270;BME280;42176;43.240;27.880;2023-04-23T03:01:28;100224.53;;;7.27;100.00
56270;BME280;42176;43.240;27.880;2023-04-23T03:03:54;100221.03;;;7.25;100.00
56270;BME280;42176;43.240;27.880;2023-04-23T03:06:19;100210.56;;;7.12;100.00
56270;BME280;42176;43.240;27.880;2023-04-23T03:08:45;100228.06;;;7.23;100.00
56270;BME280;42176;43.240;27.880;2023-04-23T03:11:10;100232.50;;;7.19;100.00
56270;BME280;42176;43.240;27.880;2023-04-23T03:13:36;100222.81;;;7.20;100.00
56270;BME280;42176;43.240;27.880;2023-04-23T03:16:01;100210.56;;;7.12;100.00
56270;BME280;42176;43.240;27.880;2023-04-23T03:18:27;100226.34;;;7.19;100.00
56270;BME280;42176;43.240;27.880;2023-04-23T03:20:52;100209.72;;;7.07;100.00
56270;BME280;42176;43.240;27.880;2023-04-23T03:23:18;100228.97;;;7.22;100.00
56270;BME280;42176;43.240;27.880;2023-04-23T03:25:43;100233.31;;;7.29;100.00
56270;BME280;42176;43.240;27.880;2023-04-23T03:28:09;100235.03;;;7.33;100.00
56270;BME280;42176;43.240;27.880;2023-04-23T03:30:34;100227.13;;;7.33;100.00
56270;BME280;42176;43.240;27.880;2023-04-23T03:33:00;100236.75;;;7.40;100.00
56270;BME280;42176;43.240;27.880;2023-04-23T03:35:28;100217.50;;;7.29;100.00
56270;BME280;42176;43.240;27.880;2023-04-23T03:37:53;100241.13;;;7.44;100.00
56270;BME280;42176;43.240;27.880;2023-04-23T03:40:20;100244.63;;;7.46;100.00
56270;BME280;42176;43.240;27.880;2023-04-23T03:42:46;100240.16;;;7.52;100.00
56270;BME280;42176;43.240;27.880;2023-04-23T03:45:11;100239.25;;;7.59;100.00
56270;BME280;42176;43.240;27.880;2023-04-23T03:47:38;100238.28;;;7.66;100.00
56270;BME280;42176;43.240;27.880;2023-04-23T03:50:05;100248.69;;;7.85;100.00
56270;BME280;42176;43.240;27.880;2023-04-23T03:52:31;100246.47;;;8.33;100.00
56270;BME280;42176;43.240;27.880;2023-04-23T03:54:56;100250.28;;;8.82;99.60
56270;BME280;42176;43.240;27.880;2023-04-23T03:57:22;100253.19;;;9.28;96.71
56270;BME280;42176;43.240;27.880;2023-04-23T03:59:47;100246.38;;;9.71;93.67
56270;BME280;42176;43.240;27.880;2023-04-23T04:02:13;100254.44;;;10.13;91.42
56270;BME280;42176;43.240;27.880;2023-04-23T04:04:38;100252.84;;;10.53;87.49
56270;BME280;42176;43.240;27.880;2023-04-23T04:07:04;100254.66;;;10.95;83.70
56270;BME280;42176;43.240;27.880;2023-04-23T04:09:31;100253.81;;;11.32;80.85
56270;BME280;42176;43.240;27.880;2023-04-23T04:11:57;100259.84;;;11.77;77.51
56270;BME280;42176;43.240;27.880;2023-04-23T04:14:22;100274.78;;;12.17;74.82
56270;BME280;42176;43.240;27.880;2023-04-23T04:16:48;100263.16;;;12.54;72.24
56270;BME280;42176;43.240;27.880;2023-04-23T04:19:14;100269.25;;;12.89;70.48
56270;BME280;42176;43.240;27.880;2023-04-23T04:21:39;100266.50;;;13.22;69.08
56270;BME280;42176;43.240;27.880;2023-04-23T04:24:05;100274.13;;;13.33;68.07
56270;BME280;42176;43.240;27.880;2023-04-23T04:26:31;100269.00;;;13.84;66.56
56270;BME280;42176;43.240;27.880;2023-04-23T04:28:57;100271.53;;;14.39;64.93
56270;BME280;42176;43.240;27.880;2023-04-23T04:31:24;100275.13;;;14.89;61.62
56270;BME280;42176;43.240;27.880;2023-04-23T04:33:52;100270.53;;;15.38;59.42
56270;BME280;42176;43.240;27.880;2023-04-23T04:36:19;100266.03;;;15.85;56.79
56270;BME280;42176;43.240;27.880;2023-04-23T04:38:45;100276.50;;;16.33;55.13
56270;BME280;42176;43.240;27.880;2023-04-23T04:41:10;100276.09;;;16.82;53.43
56270;BME280;42176;43.240;27.880;2023-04-23T04:43:37;100280.69;;;17.37;52.05
56270;BME280;42176;43.240;27.880;2023-04-23T04:46:03;100281.41;;;17.77;51.24
56270;BME280;42176;43.240;27.880;2023-04-23T04:48:29;100276.41;;;18.24;49.38
56270;BME280;42176;43.240;27.880;2023-04-23T04:50:54;100272.72;;;18.78;47.35
56270;BME280;42176;43.240;27.880;2023-04-23T04:53:21;100277.06;;;19.30;46.71
56270;BME280;42176;43.240;27.880;2023-04-23T04:55:46;100270.97;;;19.90;45.38
56270;BME280;42176;43.240;27.880;2023-04-23T04:58:12;100276.88;;;20.71;43.09
56270;BME280;42176;43.240;27.880;2023-04-23T05:00:38;100281.66;;;21.38;41.22
56270;BME280;42176;43.240;27.880;2023-04-23T05:03:03;100273.53;;;22.08;39.70
56270;BME280;42176;43.240;27.880;2023-04-23T05:05:30;100282.91;;;22.81;38.50
56270;BME280;42176;43.240;27.880;2023-04-23T05:07:56;100278.78;;;23.27;37.27
56270;BME280;42176;43.240;27.880;2023-04-23T05:10:27;100282.19;;;23.29;36.30
56270;BME280;42176;43.240;27.880;2023-04-23T05:12:55;100280.22;;;23.44;35.88
56270;BME280;42176;43.240;27.880;2023-04-23T05:15:20;100289.69;;;23.63;36.40
56270;BME280;42176;43.240;27.880;2023-04-23T05:17:46;100283.78;;;24.17;35.67
56270;BME280;42176;43.240;27.880;2023-04-23T05:20:11;100294.41;;;24.79;34.49
56270;BME280;42176;43.240;27.880;2023-04-23T05:22:40;100287.13;;;25.36;33.31
56270;BME280;42176;43.240;27.880;2023-04-23T05:25:07;100278.41;;;25.77;32.20
56270;BME280;42176;43.240;27.880;2023-04-23T05:27:33;100279.69;;;26.26;31.18
56270;BME280;42176;43.240;27.880;2023-04-23T05:30:00;100288.47;;;26.82;30.87
56270;BME280;42176;43.240;27.880;2023-04-23T05:32:26;100291.91;;;27.15;30.21
56270;BME280;42176;43.240;27.880;2023-04-23T05:34:51;100283.03;;;27.13;30.08
56270;BME280;42176;43.240;27.880;2023-04-23T05:37:17;100289.22;;;27.66;29.76
56270;BME280;42176;43.240;27.880;2023-04-23T05:39:42;100274.06;;;28.13;29.50
56270;BME280;42176;43.240;27.880;2023-04-23T05:42:07;100290.81;;;28.95;29.13
56270;BME280;42176;43.240;27.880;2023-04-23T05:44:33;100293.78;;;29.29;28.35
56270;BME280;42176;43.240;27.880;2023-04-23T05:46:58;100296.75;;;29.74;27.54
56270;BME280;42176;43.240;27.880;2023-04-23T05:49:24;100295.03;;;30.09;26.85
56270;BME280;42176;43.240;27.880;2023-04-23T05:51:50;100293.22;;;30.36;25.97
56270;BME280;42176;43.240;27.880;2023-04-23T05:54:15;100290.28;;;30.56;26.08
56270;BME280;42176;43.240;27.880;2023-04-23T05:56:41;100289.53;;;30.98;25.85
56270;BME280;42176;43.240;27.880;2023-04-23T05:59:06;100286.97;;;31.39;25.07
56270;BME280;42176;43.240;27.880;2023-04-23T06:01:32;100285.06;;;31.99;24.29
56270;BME280;42176;43.240;27.880;2023-04-23T06:03:57;100289.88;;;32.39;23.74
56270;BME280;42176;43.240;27.880;2023-04-23T06:06:23;100285.00;;;32.74;23.31
56270;BME280;42176;43.240;27.880;2023-04-23T06:08:48;100296.91;;;33.14;22.74
56270;BME280;42176;43.240;27.880;2023-04-23T06:11:15;100294.84;;;33.16;22.32
56270;BME280;42176;43.240;27.880;2023-04-23T06:13:40;100298.69;;;32.99;22.32
56270;BME280;42176;43.240;27.880;2023-04-23T06:16:07;100289.06;;;33.03;22.00
56270;BME280;42176;43.240;27.880;2023-04-23T06:18:33;100301.53;;;33.62;21.99
56270;BME280;42176;43.240;27.880;2023-04-23T06:20:59;100300.63;;;33.30;21.79
56270;BME280;42176;43.240;27.880;2023-04-23T06:23:29;100294.44;;;33.67;21.65
56270;BME280;42176;43.240;27.880;2023-04-23T06:25:54;100290.22;;;33.17;21.62
56270;BME280;42176;43.240;27.880;2023-04-23T06:28:20;100301.97;;;33.34;21.33
56270;BME280;42176;43.240;27.880;2023-04-23T06:30:46;100302.09;;;33.09;21.69
56270;BME280;42176;43.240;27.880;2023-04-23T06:33:12;100305.59;;;33.26;21.75
56270;BME280;42176;43.240;27.880;2023-04-23T06:35:37;100301.31;;;33.63;21.33
56270;BME280;42176;43.240;27.880;2023-04-23T06:38:03;100298.56;;;33.32;21.45
56270;BME280;42176;43.240;27.880;2023-04-23T06:40:28;100304.44;;;33.92;21.48
56270;BME280;42176;43.240;27.880;2023-04-23T06:42:53;100303.06;;;33.88;21.40
56270;BME280;42176;43.240;27.880;2023-04-23T06:45:20;100298.44;;;34.11;21.28
56270;BME280;42176;43.240;27.880;2023-04-23T06:47:45;100293.88;;;34.95;20.79
56270;BME280;42176;43.240;27.880;2023-04-23T06:50:11;100282.06;;;35.31;20.15
56270;BME280;42176;43.240;27.880;2023-04-23T06:52:36;100299.03;;;34.60;20.26
56270;BME280;42176;43.240;27.880;2023-04-23T06:55:02;100298.78;;;35.45;19.78
56270;BME280;42176;43.240;27.880;2023-04-23T06:57:27;100307.72;;;34.87;20.93
56270;BME280;42176;43.240;27.880;2023-04-23T06:59:53;100305.00;;;34.49;20.79
56270;BME280;42176;43.240;27.880;2023-04-23T07:02:18;100309.06;;;34.14;21.38
56270;BME280;42176;43.240;27.880;2023-04-23T07:04:44;100309.34;;;34.96;20.38
56270;BME280;42176;43.240;27.880;2023-04-23T07:07:10;100312.25;;;35.40;20.26
56270;BME280;42176;43.240;27.880;2023-04-23T07:09:36;100312.44;;;35.53;19.46
56270;BME280;42176;43.240;27.880;2023-04-23T07:12:02;100312.34;;;34.33;20.87
56270;BME280;42176;43.240;27.880;2023-04-23T07:14:27;100313.00;;;34.73;20.53
56270;BME280;42176;43.240;27.880;2023-04-23T07:16:53;100314.16;;;34.64;20.51
56270;BME280;42176;43.240;27.880;2023-04-23T07:19:19;100305.75;;;34.42;20.54
56270;BME280;42176;43.240;27.880;2023-04-23T07:21:44;100320.44;;;34.11;20.54
56270;BME280;42176;43.240;27.880;2023-04-23T07:24:10;100288.84;;;34.07;20.31
56270;BME280;42176;43.240;27.880;2023-04-23T07:26:36;100324.91;;;33.58;20.79
56270;BME280;42176;43.240;27.880;2023-04-23T07:29:02;100323.44;;;33.70;20.67
56270;BME280;42176;43.240;27.880;2023-04-23T07:31:28;100315.28;;;34.55;19.94
56270;BME280;42176;43.240;27.880;2023-04-23T07:33:54;100322.53;;;34.09;19.82
56270;BME280;42176;43.240;27.880;2023-04-23T07:36:21;100303.78;;;34.28;19.39
56270;BME280;42176;43.240;27.880;2023-04-23T07:38:46;100317.50;;;33.90;20.03
56270;BME280;42176;43.240;27.880;2023-04-23T07:41:12;100317.19;;;34.69;19.01
56270;BME280;42176;43.240;27.880;2023-04-23T07:43:38;100315.56;;;34.60;19.00
56270;BME280;42176;43.240;27.880;2023-04-23T07:46:06;100321.16;;;34.52;18.63
56270;BME280;42176;43.240;27.880;2023-04-23T07:48:31;100309.97;;;34.68;18.53
56270;BME280;42176;43.240;27.880;2023-04-23T07:50:59;100308.34;;;34.59;18.80
56270;BME280;42176;43.240;27.880;2023-04-23T07:53:25;100305.25;;;35.22;18.85
56270;BME280;42176;43.240;27.880;2023-04-23T07:55:55;100305.53;;;33.51;19.25
56270;BME280;42176;43.240;27.880;2023-04-23T07:58:22;100292.53;;;32.88;20.27
56270;BME280;42176;43.240;27.880;2023-04-23T08:00:47;100299.16;;;34.28;19.56
56270;BME280;42176;43.240;27.880;2023-04-23T08:03:13;100307.13;;;34.00;19.51
56270;BME280;42176;43.240;27.880;2023-04-23T08:05:38;100290.13;;;32.93;20.00
56270;BME280;42176;43.240;27.880;2023-04-23T08:08:05;100299.78;;;33.37;19.81
56270;BME280;42176;43.240;27.880;2023-04-23T08:10:32;100297.06;;;32.40;20.37
56270;BME280;42176;43.240;27.880;2023-04-23T08:12:57;100294.44;;;33.36;19.74
56270;BME280;42176;43.240;27.880;2023-04-23T08:15:23;100298.75;;;32.82;19.97
56270;BME280;42176;43.240;27.880;2023-04-23T08:17:48;100299.84;;;29.79;22.38
56270;BME280;42176;43.240;27.880;2023-04-23T08:20:13;100286.06;;;28.20;23.74
56270;BME280;42176;43.240;27.880;2023-04-23T08:22:39;100276.31;;;28.37;24.39
56270;BME280;42176;43.240;27.880;2023-04-23T08:25:05;100290.63;;;27.50;25.11
56270;BME280;42176;43.240;27.880;2023-04-23T08:27:30;100282.88;;;27.65;25.46
56270;BME280;42176;43.240;27.880;2023-04-23T08:29:56;100286.13;;;26.99;26.27
56270;BME280;42176;43.240;27.880;2023-04-23T08:32:21;100285.72;;;25.97;27.55
56270;BME280;42176;43.240;27.880;2023-04-23T08:34:47;100281.63;;;26.67;26.19
56270;BME280;42176;43.240;27.880;2023-04-23T08:37:12;100281.50;;;26.89;25.88
56270;BME280;42176;43.240;27.880;2023-04-23T08:39:37;100274.47;;;26.66;26.55
56270;BME280;42176;43.240;27.880;2023-04-23T08:42:15;100276.19;;;25.71;27.21
56270;BME280;42176;43.240;27.880;2023-04-23T08:44:45;100274.59;;;26.00;27.19
56270;BME280;42176;43.240;27.880;2023-04-23T08:47:14;100279.97;;;25.35;27.22
56270;BME280;42176;43.240;27.880;2023-04-23T08:49:44;100266.56;;;23.94;29.11
56270;BME280;42176;43.240;27.880;2023-04-23T08:52:16;100273.25;;;23.29;30.69
56270;BME280;42176;43.240;27.880;2023-04-23T08:54:48;100281.09;;;21.48;33.31
56270;BME280;42176;43.240;27.880;2023-04-23T08:57:15;100280.91;;;20.35;35.12
56270;BME280;42176;43.240;27.880;2023-04-23T08:59:42;100277.34;;;20.49;35.20
56270;BME280;42176;43.240;27.880;2023-04-23T09:02:09;100280.09;;;20.18;36.15
56270;BME280;42176;43.240;27.880;2023-04-23T09:04:35;100285.28;;;20.21;35.74
56270;BME280;42176;43.240;27.880;2023-04-23T09:07:01;100280.97;;;20.78;34.56
56270;BME280;42176;43.240;27.880;2023-04-23T09:09:28;100283.47;;;20.81;34.74
56270;BME280;42176;43.240;27.880;2023-04-23T09:11:57;100280.31;;;19.99;35.78
56270;BME280;42176;43.240;27.880;2023-04-23T09:14:23;100282.50;;;18.96;38.51
56270;BME280;42176;43.240;27.880;2023-04-23T09:16:49;100287.63;;;18.15;39.60
56270;BME280;42176;43.240;27.880;2023-04-23T09:19:16;100284.00;;;18.16;40.93
56270;BME280;42176;43.240;27.880;2023-04-23T09:21:43;100281.59;;;17.92;40.76
56270;BME280;42176;43.240;27.880;2023-04-23T09:24:10;100301.47;;;17.32;43.01
56270;BME280;42176;43.240;27.880;2023-04-23T09:26:43;100301.78;;;17.26;43.81
56270;BME280;42176;43.240;27.880;2023-04-23T09:29:17;100303.44;;;17.09;43.88
56270;BME280;42176;43.240;27.880;2023-04-23T09:31:45;100297.16;;;16.89;44.78
56270;BME280;42176;43.240;27.880;2023-04-23T09:34:17;100305.00;;;17.13;44.43
56270;BME280;42176;43.240;27.880;2023-04-23T09:36:47;100297.63;;;17.18;44.22
56270;BME280;42176;43.240;27.880;2023-04-23T09:39:21;100310.81;;;17.42;45.82
56270;BME280;42176;43.240;27.880;2023-04-23T09:41:47;100299.66;;;17.13;47.02
56270;BME280;42176;43.240;27.880;2023-04-23T09:44:20;100306.69;;;16.97;48.32
56270;BME280;42176;43.240;27.880;2023-04-23T09:46:48;100303.72;;;17.22;49.24
56270;BME280;42176;43.240;27.880;2023-04-23T09:49:14;100289.69;;;17.36;49.46
56270;BME280;42176;43.240;27.880;2023-04-23T09:51:45;100291.81;;;17.66;46.75
56270;BME280;42176;43.240;27.880;2023-04-23T09:54:21;100292.06;;;17.79;46.48
56270;BME280;42176;43.240;27.880;2023-04-23T09:56:51;100294.22;;;17.90;46.55
56270;BME280;42176;43.240;27.880;2023-04-23T09:59:22;100280.59;;;17.94;47.99
56270;BME280;42176;43.240;27.880;2023-04-23T10:01:48;100287.47;;;18.00;50.68
56270;BME280;42176;43.240;27.880;2023-04-23T10:04:18;100282.03;;;18.02;46.80
56270;BME280;42176;43.240;27.880;2023-04-23T10:06:44;100280.13;;;18.04;47.63
56270;BME280;42176;43.240;27.880;2023-04-23T10:09:10;100268.03;;;17.95;50.03
56270;BME280;42176;43.240;27.880;2023-04-23T10:11:36;100272.44;;;17.96;51.62
56270;BME280;42176;43.240;27.880;2023-04-23T10:14:02;100267.97;;;17.96;51.53
56270;BME280;42176;43.240;27.880;2023-04-23T10:16:28;100265.34;;;17.95;49.12
56270;BME280;42176;43.240;27.880;2023-04-23T10:18:53;100259.97;;;17.95;49.89
56270;BME280;42176;43.240;27.880;2023-04-23T10:21:25;100273.75;;;18.06;50.85
56270;BME280;42176;43.240;27.880;2023-04-23T10:23:53;100271.00;;;18.08;49.85
56270;BME280;42176;43.240;27.880;2023-04-23T10:26:21;100271.69;;;18.11;47.81
56270;BME280;42176;43.240;27.880;2023-04-23T10:28:49;100268.72;;;18.18;46.82
56270;BME280;42176;43.240;27.880;2023-04-23T10:31:18;100265.69;;;18.24;47.68
56270;BME280;42176;43.240;27.880;2023-04-23T10:33:47;100267.28;;;18.28;48.50
56270;BME280;42176;43.240;27.880;2023-04-23T10:36:15;100258.59;;;18.23;47.60
56270;BME280;42176;43.240;27.880;2023-04-23T10:38:41;100252.19;;;17.90;46.37
56270;BME280;42176;43.240;27.880;2023-04-23T10:41:07;100247.50;;;17.94;45.33
56270;BME280;42176;43.240;27.880;2023-04-23T10:43:34;100250.28;;;17.92;45.95
56270;BME280;42176;43.240;27.880;2023-04-23T10:46:00;100249.09;;;17.80;48.14
56270;BME280;42176;43.240;27.880;2023-04-23T10:48:28;100254.94;;;17.34;47.52
56270;BME280;42176;43.240;27.880;2023-04-23T10:50:57;100246.75;;;16.59;46.76
56270;BME280;42176;43.240;27.880;2023-04-23T10:53:24;100252.00;;;16.21;47.65
56270;BME280;42176;43.240;27.880;2023-04-23T10:56:03;100249.72;;;15.91;47.47
56270;BME280;42176;43.240;27.880;2023-04-23T10:58:46;100249.06;;;16.07;49.08
56270;BME280;42176;43.240;27.880;2023-04-23T11:01:13;100255.63;;;16.00;48.18
56270;BME280;42176;43.240;27.880;2023-04-23T11:03:39;100225.06;;;16.05;47.34
56270;BME280;42176;43.240;27.880;2023-04-23T11:06:06;100240.75;;;15.92;48.49
56270;BME280;42176;43.240;27.880;2023-04-23T11:08:36;100242.84;;;16.06;48.12
56270;BME280;42176;43.240;27.880;2023-04-23T11:11:06;100242.13;;;16.03;48.86
56270;BME280;42176;43.240;27.880;2023-04-23T11:13:32;100246.03;;;16.56;49.93
56270;BME280;42176;43.240;27.880;2023-04-23T11:16:20;100240.13;;;16.87;48.30
56270;BME280;42176;43.240;27.880;2023-04-23T11:19:11;100241.94;;;16.87;45.15
56270;BME280;42176;43.240;27.880;2023-04-23T11:21:59;100239.09;;;16.71;45.92
56270;BME280;42176;43.240;27.880;2023-04-23T11:24:29;100238.97;;;16.74;44.71
56270;BME280;42176;43.240;27.880;2023-04-23T11:26:55;100239.22;;;16.68;46.63
56270;BME280;42176;43.240;27.880;2023-04-23T11:29:22;100231.06;;;16.71;45.19
56270;BME280;42176;43.240;27.880;2023-04-23T11:31:49;100236.56;;;16.68;45.29
56270;BME280;42176;43.240;27.880;2023-04-23T11:34:15;100236.94;;;16.79;45.12
56270;BME280;42176;43.240;27.880;2023-04-23T11:36:41;100241.84;;;16.50;43.85
56270;BME280;42176;43.240;27.880;2023-04-23T11:39:07;100241.63;;;16.74;45.69
56270;BME280;42176;43.240;27.880;2023-04-23T11:41:34;100240.00;;;16.90;44.40
56270;BME280;42176;43.240;27.880;2023-04-23T11:43:59;100243.38;;;16.96;43.37
56270;BME280;42176;43.240;27.880;2023-04-23T11:46:25;100243.88;;;16.83;43.72
56270;BME280;42176;43.240;27.880;2023-04-23T11:48:50;100236.16;;;16.77;44.55
56270;BME280;42176;43.240;27.880;2023-04-23T11:51:15;100231.03;;;17.11;45.39
56270;BME280;42176;43.240;27.880;2023-04-23T11:53:47;100241.41;;;16.79;43.76
56270;BME280;42176;43.240;27.880;2023-04-23T11:56:16;100224.72;;;16.93;44.64
56270;BME280;42176;43.240;27.880;2023-04-23T11:58:41;100227.69;;;16.86;43.95
56270;BME280;42176;43.240;27.880;2023-04-23T12:01:07;100235.22;;;17.16;45.46
56270;BME280;42176;43.240;27.880;2023-04-23T12:03:35;100233.34;;;17.18;41.86
56270;BME280;42176;43.240;27.880;2023-04-23T12:06:01;100226.28;;;16.98;44.82
56270;BME280;42176;43.240;27.880;2023-04-23T12:08:31;100227.22;;;16.57;45.18
56270;BME280;42176;43.240;27.880;2023-04-23T12:11:00;100219.13;;;16.19;46.38
56270;BME280;42176;43.240;27.880;2023-04-23T12:13:30;100223.94;;;16.11;47.04
56270;BME280;42176;43.240;27.880;2023-04-23T12:15:59;100216.06;;;15.87;48.70
56270;BME280;42176;43.240;27.880;2023-04-23T12:18:28;100208.00;;;16.08;48.25
56270;BME280;42176;43.240;27.880;2023-04-23T12:20:55;100220.25;;;15.93;49.27
56270;BME280;42176;43.240;27.880;2023-04-23T12:23:25;100203.47;;;15.67;50.60
56270;BME280;42176;43.240;27.880;2023-04-23T12:25:55;100202.75;;;15.63;52.10
56270;BME280;42176;43.240;27.880;2023-04-23T12:28:24;100206.31;;;15.64;53.96
56270;BME280;42176;43.240;27.880;2023-04-23T12:30:50;100208.72;;;15.48;57.19
56270;BME280;42176;43.240;27.880;2023-04-23T12:33:16;100201.78;;;15.21;59.37
56270;BME280;42176;43.240;27.880;2023-04-23T12:35:44;100198.19;;;14.76;59.38
56270;BME280;42176;43.240;27.880;2023-04-23T12:38:24;100207.34;;;14.69;58.15